Portada
METAR-TAF:

METAR-TAF

Aeropuertos :

Aeropuerto Internacional de Damasco

Damasco, Siria

latitud: 33-25N, longitud: 036-31E, altitud: 608 m

Observación

El informe se hizo hace 1 hora y 9 minutos, a las 11:00 UTC
Viento 6 kt del sur-suroeste
Temperatura 16°C
Humedad 51%
Presión 1021 hPa
Visibilidad 10 km o más
Escasas nubes a una altura de 3000 ft
Nubes dispersas a una altura de 20000 ft

METAR: OSDI 271100Z 20006KT 9999 FEW030 SCT200 16/06 Q1021

Hora: 14:09 (12:09 UTC)

Pronóstico

El informe se hizo hace 1 hora y 54 minutos, a las 10:15 UTC
Pronóstico válido del 27 a las 12 UTC al 28 a las 18 UTC
Viento 10 kt del suroeste
Visibilidad 10 km o más
Escasas nubes a una altura de 3000 ft
Nubes dispersas a una altura de 10000 ft

TAF: OSDI 271015Z 2712/2818 22010KT 9999 FEW030 SCT100

Observaciones y pronósticos meteorológicos de más de 4000 aeropuertos (mensajes METAR y TAF).

Los puntos amarillos y rojos representan las estaciones disponibles.

Ponga el ratón en el punto deseado para ver el nombre de la estación.

Haga clic para ver las observaciones y los pronósticos meteorológicos.

Para cambiar el mapa : haga clic en los botones verdes con una cruz de color negro para hacer un zoom, en el botón verde con un guión para alejar o en las flechas verdes para mapas adyacentes.


METAR-TAF: